sensor_id;sensor_type;location;lat;lon;timestamp;P1;durP1;ratioP1;P2;durP2;ratioP2
69126;SDS011;56688;50.234;19.292;2023-05-19T00:01:18;5.00;;;2.70;;
69126;SDS011;56688;50.234;19.292;2023-05-19T00:03:55;6.40;;;2.70;;
69126;SDS011;56688;50.234;19.292;2023-05-19T00:06:25;5.00;;;2.40;;
69126;SDS011;56688;50.234;19.292;2023-05-19T00:08:57;5.60;;;2.80;;
69126;SDS011;56688;50.234;19.292;2023-05-19T00:11:26;3.40;;;2.40;;
69126;SDS011;56688;50.234;19.292;2023-05-19T00:13:54;5.20;;;3.10;;
69126;SDS011;56688;50.234;19.292;2023-05-19T00:16:23;4.30;;;2.80;;
69126;SDS011;56688;50.234;19.292;2023-05-19T00:18:51;5.30;;;2.70;;
69126;SDS011;56688;50.234;19.292;2023-05-19T00:21:19;5.30;;;2.70;;
69126;SDS011;56688;50.234;19.292;2023-05-19T00:23:46;4.80;;;2.70;;
69126;SDS011;56688;50.234;19.292;2023-05-19T00:26:13;5.30;;;2.60;;
69126;SDS011;56688;50.234;19.292;2023-05-19T00:28:43;4.70;;;2.60;;
69126;SDS011;56688;50.234;19.292;2023-05-19T00:31:10;5.20;;;2.70;;
69126;SDS011;56688;50.234;19.292;2023-05-19T00:33:37;7.30;;;3.10;;
69126;SDS011;56688;50.234;19.292;2023-05-19T00:36:04;5.00;;;2.70;;
69126;SDS011;56688;50.234;19.292;2023-05-19T00:38:32;3.90;;;2.60;;
69126;SDS011;56688;50.234;19.292;2023-05-19T00:41:01;6.10;;;2.90;;
69126;SDS011;56688;50.234;19.292;2023-05-19T00:43:29;5.50;;;2.70;;
69126;SDS011;56688;50.234;19.292;2023-05-19T00:45:56;4.60;;;2.60;;
69126;SDS011;56688;50.234;19.292;2023-05-19T00:48:23;4.60;;;2.60;;
69126;SDS011;56688;50.234;19.292;2023-05-19T00:50:52;5.40;;;2.70;;
69126;SDS011;56688;50.234;19.292;2023-05-19T00:53:20;4.90;;;2.60;;
69126;SDS011;56688;50.234;19.292;2023-05-19T00:55:49;5.20;;;3.10;;
69126;SDS011;56688;50.234;19.292;2023-05-19T00:58:16;4.50;;;2.90;;
69126;SDS011;56688;50.234;19.292;2023-05-19T01:00:44;5.30;;;3.10;;
69126;SDS011;56688;50.234;19.292;2023-05-19T01:03:11;5.80;;;2.80;;
69126;SDS011;56688;50.234;19.292;2023-05-19T01:05:39;4.30;;;2.80;;
69126;SDS011;56688;50.234;19.292;2023-05-19T01:08:08;5.10;;;3.10;;
69126;SDS011;56688;50.234;19.292;2023-05-19T01:10:35;6.00;;;2.90;;
69126;SDS011;56688;50.234;19.292;2023-05-19T01:13:03;5.80;;;2.90;;
69126;SDS011;56688;50.234;19.292;2023-05-19T01:15:32;6.80;;;2.70;;
69126;SDS011;56688;50.234;19.292;2023-05-19T01:18:07;6.90;;;3.20;;
69126;SDS011;56688;50.234;19.292;2023-05-19T01:20:41;5.40;;;2.90;;
69126;SDS011;56688;50.234;19.292;2023-05-19T01:23:16;6.70;;;3.00;;
69126;SDS011;56688;50.234;19.292;2023-05-19T01:26:00;7.10;;;2.70;;
69126;SDS011;56688;50.234;19.292;2023-05-19T01:28:40;4.90;;;2.70;;
69126;SDS011;56688;50.234;19.292;2023-05-19T01:31:14;5.10;;;2.80;;
69126;SDS011;56688;50.234;19.292;2023-05-19T01:33:44;4.30;;;3.00;;
69126;SDS011;56688;50.234;19.292;2023-05-19T01:36:13;6.50;;;2.80;;
69126;SDS011;56688;50.234;19.292;2023-05-19T01:38:40;4.20;;;3.20;;
69126;SDS011;56688;50.234;19.292;2023-05-19T01:41:09;6.10;;;3.00;;
69126;SDS011;56688;50.234;19.292;2023-05-19T01:43:37;6.80;;;3.10;;
69126;SDS011;56688;50.234;19.292;2023-05-19T01:46:06;6.20;;;3.10;;
69126;SDS011;56688;50.234;19.292;2023-05-19T01:48:33;6.30;;;3.30;;
69126;SDS011;56688;50.234;19.292;2023-05-19T01:51:01;5.20;;;3.10;;
69126;SDS011;56688;50.234;19.292;2023-05-19T01:53:28;5.90;;;3.00;;
69126;SDS011;56688;50.234;19.292;2023-05-19T01:55:55;7.20;;;3.10;;
69126;SDS011;56688;50.234;19.292;2023-05-19T01:58:28;5.90;;;3.20;;
69126;SDS011;56688;50.234;19.292;2023-05-19T02:03:41;6.80;;;3.60;;
69126;SDS011;56688;50.234;19.292;2023-05-19T02:13:50;5.70;;;3.10;;
69126;SDS011;56688;50.234;19.292;2023-05-19T02:16:24;6.30;;;3.30;;
69126;SDS011;56688;50.234;19.292;2023-05-19T02:18:54;4.50;;;2.90;;
69126;SDS011;56688;50.234;19.292;2023-05-19T02:21:22;7.80;;;3.10;;
69126;SDS011;56688;50.234;19.292;2023-05-19T02:23:49;4.80;;;2.90;;
69126;SDS011;56688;50.234;19.292;2023-05-19T02:26:18;6.20;;;3.00;;
69126;SDS011;56688;50.234;19.292;2023-05-19T02:28:45;3.10;;;2.60;;
69126;SDS011;56688;50.234;19.292;2023-05-19T02:31:12;5.80;;;3.10;;
69126;SDS011;56688;50.234;19.292;2023-05-19T02:33:39;5.60;;;2.90;;
69126;SDS011;56688;50.234;19.292;2023-05-19T02:36:07;5.50;;;2.90;;
69126;SDS011;56688;50.234;19.292;2023-05-19T02:38:35;4.30;;;3.30;;
69126;SDS011;56688;50.234;19.292;2023-05-19T02:41:03;4.80;;;2.90;;
69126;SDS011;56688;50.234;19.292;2023-05-19T02:43:30;7.00;;;2.80;;
69126;SDS011;56688;50.234;19.292;2023-05-19T02:45:57;5.50;;;2.90;;
69126;SDS011;56688;50.234;19.292;2023-05-19T02:48:25;6.50;;;3.20;;
69126;SDS011;56688;50.234;19.292;2023-05-19T02:50:52;4.30;;;2.70;;
69126;SDS011;56688;50.234;19.292;2023-05-19T02:53:19;6.50;;;3.50;;
69126;SDS011;56688;50.234;19.292;2023-05-19T02:55:45;5.50;;;3.00;;
69126;SDS011;56688;50.234;19.292;2023-05-19T02:58:12;7.60;;;3.40;;
69126;SDS011;56688;50.234;19.292;2023-05-19T03:00:39;5.60;;;3.20;;
69126;SDS011;56688;50.234;19.292;2023-05-19T03:03:06;6.60;;;3.30;;
69126;SDS011;56688;50.234;19.292;2023-05-19T03:05:36;4.80;;;3.20;;
69126;SDS011;56688;50.234;19.292;2023-05-19T03:08:03;5.00;;;3.00;;
69126;SDS011;56688;50.234;19.292;2023-05-19T03:10:30;5.90;;;3.60;;
69126;SDS011;56688;50.234;19.292;2023-05-19T03:12:57;5.40;;;2.90;;
69126;SDS011;56688;50.234;19.292;2023-05-19T03:15:24;11.00;;;3.50;;
69126;SDS011;56688;50.234;19.292;2023-05-19T03:17:51;6.60;;;3.50;;
69126;SDS011;56688;50.234;19.292;2023-05-19T03:20:18;9.30;;;3.70;;
69126;SDS011;56688;50.234;19.292;2023-05-19T03:22:45;9.00;;;3.70;;
69126;SDS011;56688;50.234;19.292;2023-05-19T03:25:12;7.90;;;3.40;;
69126;SDS011;56688;50.234;19.292;2023-05-19T03:27:40;7.60;;;3.90;;
69126;SDS011;56688;50.234;19.292;2023-05-19T03:30:08;13.50;;;4.10;;
69126;SDS011;56688;50.234;19.292;2023-05-19T03:32:50;8.20;;;4.20;;
69126;SDS011;56688;50.234;19.292;2023-05-19T03:35:18;8.60;;;4.00;;
69126;SDS011;56688;50.234;19.292;2023-05-19T03:37:45;7.70;;;3.60;;
69126;SDS011;56688;50.234;19.292;2023-05-19T03:40:12;8.40;;;3.70;;
69126;SDS011;56688;50.234;19.292;2023-05-19T03:42:40;11.50;;;4.00;;
69126;SDS011;56688;50.234;19.292;2023-05-19T03:45:07;7.50;;;3.60;;
69126;SDS011;56688;50.234;19.292;2023-05-19T03:47:34;7.70;;;3.90;;
69126;SDS011;56688;50.234;19.292;2023-05-19T03:50:21;6.40;;;3.70;;
69126;SDS011;56688;50.234;19.292;2023-05-19T03:52:55;5.40;;;3.00;;
69126;SDS011;56688;50.234;19.292;2023-05-19T03:55:26;6.40;;;3.20;;
69126;SDS011;56688;50.234;19.292;2023-05-19T03:57:56;10.00;;;3.70;;
69126;SDS011;56688;50.234;19.292;2023-05-19T04:00:23;4.70;;;3.30;;
69126;SDS011;56688;50.234;19.292;2023-05-19T04:02:50;7.70;;;3.90;;
69126;SDS011;56688;50.234;19.292;2023-05-19T04:05:17;5.50;;;3.10;;
69126;SDS011;56688;50.234;19.292;2023-05-19T04:07:44;6.60;;;3.40;;
69126;SDS011;56688;50.234;19.292;2023-05-19T04:10:12;7.10;;;3.90;;
69126;SDS011;56688;50.234;19.292;2023-05-19T04:12:39;5.80;;;4.00;;
69126;SDS011;56688;50.234;19.292;2023-05-19T04:15:07;11.10;;;5.50;;
69126;SDS011;56688;50.234;19.292;2023-05-19T04:17:37;11.40;;;5.70;;
69126;SDS011;56688;50.234;19.292;2023-05-19T04:20:05;8.60;;;4.70;;
69126;SDS011;56688;50.234;19.292;2023-05-19T04:22:32;6.10;;;3.50;;
69126;SDS011;56688;50.234;19.292;2023-05-19T04:24:59;6.20;;;3.20;;
69126;SDS011;56688;50.234;19.292;2023-05-19T04:27:27;18.90;;;8.50;;
69126;SDS011;56688;50.234;19.292;2023-05-19T04:29:55;14.50;;;7.70;;
69126;SDS011;56688;50.234;19.292;2023-05-19T04:32:23;11.50;;;5.10;;
69126;SDS011;56688;50.234;19.292;2023-05-19T04:34:51;6.40;;;3.60;;
69126;SDS011;56688;50.234;19.292;2023-05-19T04:37:22;6.80;;;4.00;;
69126;SDS011;56688;50.234;19.292;2023-05-19T04:39:51;7.80;;;3.80;;
69126;SDS011;56688;50.234;19.292;2023-05-19T04:42:20;7.50;;;4.00;;
69126;SDS011;56688;50.234;19.292;2023-05-19T04:44:48;5.50;;;3.60;;
69126;SDS011;56688;50.234;19.292;2023-05-19T04:47:17;6.30;;;3.70;;
69126;SDS011;56688;50.234;19.292;2023-05-19T04:49:47;5.70;;;3.70;;
69126;SDS011;56688;50.234;19.292;2023-05-19T04:52:14;8.00;;;3.60;;
69126;SDS011;56688;50.234;19.292;2023-05-19T04:54:41;10.20;;;3.80;;
69126;SDS011;56688;50.234;19.292;2023-05-19T04:57:10;9.60;;;4.10;;
69126;SDS011;56688;50.234;19.292;2023-05-19T04:59:38;9.00;;;4.50;;
69126;SDS011;56688;50.234;19.292;2023-05-19T05:02:07;4.90;;;3.40;;
69126;SDS011;56688;50.234;19.292;2023-05-19T05:04:35;6.20;;;3.80;;
69126;SDS011;56688;50.234;19.292;2023-05-19T05:07:02;8.70;;;5.20;;
69126;SDS011;56688;50.234;19.292;2023-05-19T05:09:29;10.90;;;6.60;;
69126;SDS011;56688;50.234;19.292;2023-05-19T05:11:57;11.50;;;6.80;;
69126;SDS011;56688;50.234;19.292;2023-05-19T05:14:24;10.70;;;6.00;;
69126;SDS011;56688;50.234;19.292;2023-05-19T05:16:52;13.80;;;7.10;;
69126;SDS011;56688;50.234;19.292;2023-05-19T05:19:21;9.20;;;5.70;;
69126;SDS011;56688;50.234;19.292;2023-05-19T05:21:49;6.50;;;4.00;;
69126;SDS011;56688;50.234;19.292;2023-05-19T05:24:18;5.50;;;3.60;;
69126;SDS011;56688;50.234;19.292;2023-05-19T05:26:49;7.90;;;4.10;;
69126;SDS011;56688;50.234;19.292;2023-05-19T05:29:16;8.80;;;4.50;;
69126;SDS011;56688;50.234;19.292;2023-05-19T05:31:43;6.50;;;4.10;;
69126;SDS011;56688;50.234;19.292;2023-05-19T05:34:10;7.60;;;4.60;;
69126;SDS011;56688;50.234;19.292;2023-05-19T05:36:37;6.30;;;3.60;;
69126;SDS011;56688;50.234;19.292;2023-05-19T05:39:06;5.90;;;3.70;;
69126;SDS011;56688;50.234;19.292;2023-05-19T05:41:34;8.30;;;4.10;;
69126;SDS011;56688;50.234;19.292;2023-05-19T05:44:06;5.70;;;3.40;;
69126;SDS011;56688;50.234;19.292;2023-05-19T05:46:33;5.10;;;3.50;;
69126;SDS011;56688;50.234;19.292;2023-05-19T05:49:01;7.00;;;4.50;;
69126;SDS011;56688;50.234;19.292;2023-05-19T05:51:29;6.20;;;4.00;;
69126;SDS011;56688;50.234;19.292;2023-05-19T05:53:58;8.20;;;4.50;;
69126;SDS011;56688;50.234;19.292;2023-05-19T05:56:31;11.50;;;4.50;;
69126;SDS011;56688;50.234;19.292;2023-05-19T05:58:59;7.20;;;4.70;;
69126;SDS011;56688;50.234;19.292;2023-05-19T06:01:27;9.30;;;4.50;;
69126;SDS011;56688;50.234;19.292;2023-05-19T06:03:58;10.50;;;4.80;;
69126;SDS011;56688;50.234;19.292;2023-05-19T06:06:25;6.90;;;4.20;;
69126;SDS011;56688;50.234;19.292;2023-05-19T06:08:53;6.40;;;4.20;;
69126;SDS011;56688;50.234;19.292;2023-05-19T06:11:21;7.70;;;4.60;;
69126;SDS011;56688;50.234;19.292;2023-05-19T06:13:49;13.20;;;4.50;;
69126;SDS011;56688;50.234;19.292;2023-05-19T06:16:34;8.80;;;5.10;;
69126;SDS011;56688;50.234;19.292;2023-05-19T06:19:01;7.30;;;4.60;;
69126;SDS011;56688;50.234;19.292;2023-05-19T06:21:28;9.40;;;4.60;;
69126;SDS011;56688;50.234;19.292;2023-05-19T06:23:55;7.90;;;4.30;;
69126;SDS011;56688;50.234;19.292;2023-05-19T06:26:22;9.40;;;4.40;;
69126;SDS011;56688;50.234;19.292;2023-05-19T06:28:49;13.00;;;4.30;;
69126;SDS011;56688;50.234;19.292;2023-05-19T06:31:16;10.20;;;4.80;;
69126;SDS011;56688;50.234;19.292;2023-05-19T06:33:49;9.60;;;4.40;;
69126;SDS011;56688;50.234;19.292;2023-05-19T06:36:16;11.20;;;4.90;;
69126;SDS011;56688;50.234;19.292;2023-05-19T06:38:45;9.70;;;5.00;;
69126;SDS011;56688;50.234;19.292;2023-05-19T06:41:12;9.80;;;4.40;;
69126;SDS011;56688;50.234;19.292;2023-05-19T06:43:40;9.20;;;4.20;;
69126;SDS011;56688;50.234;19.292;2023-05-19T06:46:12;8.00;;;4.20;;
69126;SDS011;56688;50.234;19.292;2023-05-19T06:48:42;8.70;;;4.40;;
69126;SDS011;56688;50.234;19.292;2023-05-19T06:51:09;10.50;;;5.10;;
69126;SDS011;56688;50.234;19.292;2023-05-19T06:53:37;10.50;;;5.00;;
69126;SDS011;56688;50.234;19.292;2023-05-19T06:56:06;12.20;;;5.80;;
69126;SDS011;56688;50.234;19.292;2023-05-19T06:58:34;10.30;;;4.80;;
69126;SDS011;56688;50.234;19.292;2023-05-19T07:01:03;13.00;;;5.00;;
69126;SDS011;56688;50.234;19.292;2023-05-19T07:03:33;10.20;;;4.70;;
69126;SDS011;56688;50.234;19.292;2023-05-19T07:06:02;11.10;;;5.10;;
69126;SDS011;56688;50.234;19.292;2023-05-19T07:08:31;8.50;;;4.00;;
69126;SDS011;56688;50.234;19.292;2023-05-19T07:10:59;8.60;;;4.70;;
69126;SDS011;56688;50.234;19.292;2023-05-19T07:13:27;10.40;;;4.60;;
69126;SDS011;56688;50.234;19.292;2023-05-19T07:15:54;8.60;;;4.60;;
69126;SDS011;56688;50.234;19.292;2023-05-19T07:18:21;12.90;;;4.90;;
69126;SDS011;56688;50.234;19.292;2023-05-19T07:20:51;13.40;;;5.40;;
69126;SDS011;56688;50.234;19.292;2023-05-19T07:23:19;15.80;;;4.70;;
69126;SDS011;56688;50.234;19.292;2023-05-19T07:25:46;13.10;;;5.30;;
69126;SDS011;56688;50.234;19.292;2023-05-19T07:28:14;9.70;;;4.80;;
69126;SDS011;56688;50.234;19.292;2023-05-19T07:30:41;10.20;;;5.30;;
69126;SDS011;56688;50.234;19.292;2023-05-19T07:33:08;8.80;;;4.60;;
69126;SDS011;56688;50.234;19.292;2023-05-19T07:35:35;7.70;;;3.90;;
69126;SDS011;56688;50.234;19.292;2023-05-19T07:38:03;7.10;;;4.30;;
69126;SDS011;56688;50.234;19.292;2023-05-19T07:40:30;9.40;;;4.40;;
69126;SDS011;56688;50.234;19.292;2023-05-19T07:42:57;9.50;;;4.50;;
69126;SDS011;56688;50.234;19.292;2023-05-19T07:45:24;8.80;;;4.20;;
69126;SDS011;56688;50.234;19.292;2023-05-19T07:47:52;7.70;;;4.40;;
69126;SDS011;56688;50.234;19.292;2023-05-19T07:50:19;9.50;;;4.90;;
69126;SDS011;56688;50.234;19.292;2023-05-19T07:52:46;5.90;;;4.20;;
69126;SDS011;56688;50.234;19.292;2023-05-19T07:55:13;8.20;;;4.00;;
69126;SDS011;56688;50.234;19.292;2023-05-19T07:57:40;8.70;;;4.10;;
69126;SDS011;56688;50.234;19.292;2023-05-19T08:00:07;5.40;;;3.30;;
69126;SDS011;56688;50.234;19.292;2023-05-19T08:02:39;6.60;;;4.20;;
69126;SDS011;56688;50.234;19.292;2023-05-19T08:05:07;8.80;;;4.70;;
69126;SDS011;56688;50.234;19.292;2023-05-19T08:07:34;10.10;;;3.90;;
69126;SDS011;56688;50.234;19.292;2023-05-19T08:10:02;8.20;;;4.30;;
69126;SDS011;56688;50.234;19.292;2023-05-19T08:12:30;7.50;;;3.80;;
69126;SDS011;56688;50.234;19.292;2023-05-19T08:14:56;7.00;;;3.80;;
69126;SDS011;56688;50.234;19.292;2023-05-19T08:17:26;5.80;;;3.10;;
69126;SDS011;56688;50.234;19.292;2023-05-19T08:19:53;7.70;;;3.30;;
69126;SDS011;56688;50.234;19.292;2023-05-19T08:22:20;5.70;;;3.10;;
69126;SDS011;56688;50.234;19.292;2023-05-19T08:24:47;6.90;;;3.70;;
69126;SDS011;56688;50.234;19.292;2023-05-19T08:27:15;8.10;;;3.20;;
69126;SDS011;56688;50.234;19.292;2023-05-19T08:29:42;6.60;;;3.70;;
69126;SDS011;56688;50.234;19.292;2023-05-19T08:32:09;5.50;;;3.10;;
69126;SDS011;56688;50.234;19.292;2023-05-19T08:34:38;5.80;;;3.70;;
69126;SDS011;56688;50.234;19.292;2023-05-19T08:37:06;7.90;;;3.60;;
69126;SDS011;56688;50.234;19.292;2023-05-19T08:39:33;7.40;;;3.30;;
69126;SDS011;56688;50.234;19.292;2023-05-19T08:42:00;6.80;;;3.30;;
69126;SDS011;56688;50.234;19.292;2023-05-19T08:44:27;5.00;;;3.10;;
69126;SDS011;56688;50.234;19.292;2023-05-19T08:46:56;6.30;;;3.40;;
69126;SDS011;56688;50.234;19.292;2023-05-19T08:49:29;7.40;;;3.40;;
69126;SDS011;56688;50.234;19.292;2023-05-19T08:52:08;7.00;;;3.60;;
69126;SDS011;56688;50.234;19.292;2023-05-19T08:54:40;6.10;;;3.40;;
69126;SDS011;56688;50.234;19.292;2023-05-19T08:57:16;4.60;;;3.10;;
69126;SDS011;56688;50.234;19.292;2023-05-19T08:59:44;5.30;;;3.30;;
69126;SDS011;56688;50.234;19.292;2023-05-19T09:02:11;7.50;;;3.50;;
69126;SDS011;56688;50.234;19.292;2023-05-19T09:04:39;5.80;;;3.10;;
69126;SDS011;56688;50.234;19.292;2023-05-19T09:07:12;3.90;;;2.80;;
69126;SDS011;56688;50.234;19.292;2023-05-19T09:09:40;5.00;;;3.30;;
69126;SDS011;56688;50.234;19.292;2023-05-19T09:12:09;5.20;;;3.30;;
69126;SDS011;56688;50.234;19.292;2023-05-19T09:14:37;3.50;;;2.60;;
69126;SDS011;56688;50.234;19.292;2023-05-19T09:17:04;4.90;;;3.10;;
69126;SDS011;56688;50.234;19.292;2023-05-19T09:19:32;5.00;;;3.20;;
69126;SDS011;56688;50.234;19.292;2023-05-19T09:21:59;5.40;;;3.30;;
69126;SDS011;56688;50.234;19.292;2023-05-19T09:24:28;5.80;;;2.90;;
69126;SDS011;56688;50.234;19.292;2023-05-19T09:26:56;5.30;;;3.00;;
69126;SDS011;56688;50.234;19.292;2023-05-19T09:29:25;6.70;;;3.40;;
69126;SDS011;56688;50.234;19.292;2023-05-19T09:31:52;4.90;;;3.20;;
69126;SDS011;56688;50.234;19.292;2023-05-19T09:34:21;6.80;;;3.90;;
69126;SDS011;56688;50.234;19.292;2023-05-19T09:36:51;5.90;;;3.70;;
69126;SDS011;56688;50.234;19.292;2023-05-19T09:39:20;5.60;;;3.20;;
69126;SDS011;56688;50.234;19.292;2023-05-19T09:41:49;7.70;;;3.50;;
69126;SDS011;56688;50.234;19.292;2023-05-19T09:46:47;6.40;;;3.50;;
69126;SDS011;56688;50.234;19.292;2023-05-19T09:49:17;4.60;;;3.10;;
69126;SDS011;56688;50.234;19.292;2023-05-19T09:51:48;5.90;;;3.40;;
69126;SDS011;56688;50.234;19.292;2023-05-19T09:54:16;4.50;;;3.40;;
69126;SDS011;56688;50.234;19.292;2023-05-19T09:56:50;5.90;;;3.30;;
69126;SDS011;56688;50.234;19.292;2023-05-19T09:59:18;5.90;;;4.00;;
69126;SDS011;56688;50.234;19.292;2023-05-19T10:01:50;5.00;;;3.70;;
69126;SDS011;56688;50.234;19.292;2023-05-19T10:04:21;3.90;;;3.10;;
69126;SDS011;56688;50.234;19.292;2023-05-19T10:06:49;4.50;;;3.50;;
69126;SDS011;56688;50.234;19.292;2023-05-19T10:09:21;5.00;;;3.70;;
69126;SDS011;56688;50.234;19.292;2023-05-19T10:11:51;4.60;;;3.40;;
69126;SDS011;56688;50.234;19.292;2023-05-19T10:14:21;3.60;;;2.80;;
69126;SDS011;56688;50.234;19.292;2023-05-19T10:16:50;6.50;;;3.10;;
69126;SDS011;56688;50.234;19.292;2023-05-19T10:19:21;4.00;;;3.00;;
69126;SDS011;56688;50.234;19.292;2023-05-19T10:21:50;4.50;;;3.30;;
69126;SDS011;56688;50.234;19.292;2023-05-19T10:24:18;4.50;;;3.20;;
69126;SDS011;56688;50.234;19.292;2023-05-19T10:26:51;4.00;;;3.00;;
69126;SDS011;56688;50.234;19.292;2023-05-19T10:29:25;4.30;;;3.00;;
69126;SDS011;56688;50.234;19.292;2023-05-19T10:31:55;4.10;;;2.80;;
69126;SDS011;56688;50.234;19.292;2023-05-19T10:40:11;5.30;;;3.10;;
69126;SDS011;56688;50.234;19.292;2023-05-19T10:45:35;4.00;;;3.00;;
69126;SDS011;56688;50.234;19.292;2023-05-19T10:48:13;3.70;;;3.00;;
69126;SDS011;56688;50.234;19.292;2023-05-19T10:50:43;6.10;;;3.30;;
69126;SDS011;56688;50.234;19.292;2023-05-19T10:53:13;5.20;;;2.80;;
69126;SDS011;56688;50.234;19.292;2023-05-19T10:55:44;4.10;;;3.00;;
69126;SDS011;56688;50.234;19.292;2023-05-19T11:01:12;5.20;;;3.00;;
69126;SDS011;56688;50.234;19.292;2023-05-19T11:03:50;5.40;;;3.00;;
69126;SDS011;56688;50.234;19.292;2023-05-19T11:06:20;4.50;;;3.10;;
69126;SDS011;56688;50.234;19.292;2023-05-19T11:12:03;3.80;;;2.80;;
69126;SDS011;56688;50.234;19.292;2023-05-19T11:14:30;4.00;;;2.70;;
69126;SDS011;56688;50.234;19.292;2023-05-19T11:16:58;4.00;;;3.00;;
69126;SDS011;56688;50.234;19.292;2023-05-19T11:19:28;4.80;;;3.20;;
69126;SDS011;56688;50.234;19.292;2023-05-19T11:21:55;4.50;;;3.40;;
69126;SDS011;56688;50.234;19.292;2023-05-19T11:24:33;5.60;;;3.30;;
69126;SDS011;56688;50.234;19.292;2023-05-19T11:27:23;3.40;;;3.10;;
69126;SDS011;56688;50.234;19.292;2023-05-19T11:29:54;4.00;;;3.10;;
69126;SDS011;56688;50.234;19.292;2023-05-19T11:32:25;3.80;;;3.10;;
69126;SDS011;56688;50.234;19.292;2023-05-19T11:34:55;3.80;;;3.10;;
69126;SDS011;56688;50.234;19.292;2023-05-19T11:37:23;4.50;;;3.20;;
69126;SDS011;56688;50.234;19.292;2023-05-19T11:39:50;3.70;;;3.00;;
69126;SDS011;56688;50.234;19.292;2023-05-19T11:42:18;3.50;;;2.70;;
69126;SDS011;56688;50.234;19.292;2023-05-19T11:44:46;3.60;;;2.80;;
69126;SDS011;56688;50.234;19.292;2023-05-19T11:47:13;4.90;;;3.00;;
69126;SDS011;56688;50.234;19.292;2023-05-19T11:49:43;3.10;;;2.60;;
69126;SDS011;56688;50.234;19.292;2023-05-19T11:52:11;5.50;;;3.10;;
69126;SDS011;56688;50.234;19.292;2023-05-19T11:54:38;6.30;;;3.40;;
69126;SDS011;56688;50.234;19.292;2023-05-19T11:57:08;4.20;;;3.10;;
69126;SDS011;56688;50.234;19.292;2023-05-19T11:59:37;4.60;;;2.80;;
69126;SDS011;56688;50.234;19.292;2023-05-19T12:02:14;3.30;;;3.00;;
69126;SDS011;56688;50.234;19.292;2023-05-19T12:04:43;4.10;;;3.60;;
69126;SDS011;56688;50.234;19.292;2023-05-19T12:07:11;4.60;;;3.40;;
69126;SDS011;56688;50.234;19.292;2023-05-19T12:09:39;5.10;;;3.60;;
69126;SDS011;56688;50.234;19.292;2023-05-19T12:12:06;3.50;;;3.10;;
69126;SDS011;56688;50.234;19.292;2023-05-19T12:14:33;4.00;;;3.40;;
69126;SDS011;56688;50.234;19.292;2023-05-19T12:17:08;4.70;;;3.70;;
69126;SDS011;56688;50.234;19.292;2023-05-19T12:19:40;6.00;;;4.10;;
69126;SDS011;56688;50.234;19.292;2023-05-19T12:22:10;5.80;;;4.20;;
69126;SDS011;56688;50.234;19.292;2023-05-19T12:24:38;6.00;;;4.40;;
69126;SDS011;56688;50.234;19.292;2023-05-19T12:29:38;4.40;;;3.90;;
69126;SDS011;56688;50.234;19.292;2023-05-19T12:32:07;4.60;;;3.80;;
69126;SDS011;56688;50.234;19.292;2023-05-19T12:34:35;4.40;;;4.00;;
69126;SDS011;56688;50.234;19.292;2023-05-19T12:37:04;5.60;;;4.10;;
69126;SDS011;56688;50.234;19.292;2023-05-19T12:39:31;3.50;;;3.20;;
69126;SDS011;56688;50.234;19.292;2023-05-19T12:42:06;6.30;;;3.70;;
69126;SDS011;56688;50.234;19.292;2023-05-19T12:44:41;4.30;;;3.90;;
69126;SDS011;56688;50.234;19.292;2023-05-19T12:47:12;7.40;;;4.20;;
69126;SDS011;56688;50.234;19.292;2023-05-19T12:52:25;6.90;;;4.60;;
69126;SDS011;56688;50.234;19.292;2023-05-19T12:55:02;7.20;;;4.90;;
69126;SDS011;56688;50.234;19.292;2023-05-19T12:57:33;7.20;;;5.50;;
69126;SDS011;56688;50.234;19.292;2023-05-19T13:05:33;6.50;;;5.50;;
69126;SDS011;56688;50.234;19.292;2023-05-19T13:08:04;6.80;;;5.90;;
69126;SDS011;56688;50.234;19.292;2023-05-19T13:10:33;7.60;;;6.30;;
69126;SDS011;56688;50.234;19.292;2023-05-19T13:13:02;9.70;;;7.50;;
69126;SDS011;56688;50.234;19.292;2023-05-19T13:15:30;9.70;;;6.90;;
69126;SDS011;56688;50.234;19.292;2023-05-19T13:18:00;8.70;;;6.80;;
69126;SDS011;56688;50.234;19.292;2023-05-19T13:20:29;6.10;;;5.50;;
69126;SDS011;56688;50.234;19.292;2023-05-19T13:22:56;5.90;;;5.10;;
69126;SDS011;56688;50.234;19.292;2023-05-19T13:25:24;5.40;;;4.70;;
69126;SDS011;56688;50.234;19.292;2023-05-19T13:27:52;6.00;;;5.00;;
69126;SDS011;56688;50.234;19.292;2023-05-19T13:30:20;10.20;;;4.90;;
69126;SDS011;56688;50.234;19.292;2023-05-19T13:32:47;6.80;;;5.00;;
69126;SDS011;56688;50.234;19.292;2023-05-19T13:35:14;4.90;;;4.40;;
69126;SDS011;56688;50.234;19.292;2023-05-19T13:37:41;8.50;;;5.40;;
69126;SDS011;56688;50.234;19.292;2023-05-19T13:40:15;6.20;;;5.20;;
69126;SDS011;56688;50.234;19.292;2023-05-19T13:42:43;6.00;;;5.00;;
69126;SDS011;56688;50.234;19.292;2023-05-19T13:45:10;6.30;;;5.40;;
69126;SDS011;56688;50.234;19.292;2023-05-19T13:47:37;6.50;;;5.10;;
69126;SDS011;56688;50.234;19.292;2023-05-19T13:50:04;7.00;;;5.30;;
69126;SDS011;56688;50.234;19.292;2023-05-19T13:52:32;6.00;;;4.50;;
69126;SDS011;56688;50.234;19.292;2023-05-19T13:54:59;6.20;;;5.30;;
69126;SDS011;56688;50.234;19.292;2023-05-19T13:57:26;7.80;;;5.30;;
69126;SDS011;56688;50.234;19.292;2023-05-19T13:59:53;8.80;;;5.70;;
69126;SDS011;56688;50.234;19.292;2023-05-19T14:02:37;7.60;;;5.60;;
69126;SDS011;56688;50.234;19.292;2023-05-19T14:05:05;6.90;;;5.00;;
69126;SDS011;56688;50.234;19.292;2023-05-19T14:07:33;8.50;;;6.20;;
69126;SDS011;56688;50.234;19.292;2023-05-19T14:10:01;6.50;;;5.50;;
69126;SDS011;56688;50.234;19.292;2023-05-19T14:12:29;7.70;;;5.80;;
69126;SDS011;56688;50.234;19.292;2023-05-19T14:15:16;7.10;;;5.70;;
69126;SDS011;56688;50.234;19.292;2023-05-19T14:17:43;6.00;;;5.40;;
69126;SDS011;56688;50.234;19.292;2023-05-19T14:20:10;7.80;;;5.60;;
69126;SDS011;56688;50.234;19.292;2023-05-19T14:22:37;7.90;;;5.90;;
69126;SDS011;56688;50.234;19.292;2023-05-19T14:25:04;7.40;;;6.10;;
69126;SDS011;56688;50.234;19.292;2023-05-19T14:27:31;9.10;;;6.00;;
69126;SDS011;56688;50.234;19.292;2023-05-19T14:29:58;6.40;;;5.80;;
69126;SDS011;56688;50.234;19.292;2023-05-19T14:32:25;8.50;;;6.60;;
69126;SDS011;56688;50.234;19.292;2023-05-19T14:34:55;8.80;;;6.70;;
69126;SDS011;56688;50.234;19.292;2023-05-19T14:37:22;10.30;;;7.60;;
69126;SDS011;56688;50.234;19.292;2023-05-19T14:39:52;8.40;;;6.90;;
69126;SDS011;56688;50.234;19.292;2023-05-19T14:42:19;9.90;;;8.40;;
69126;SDS011;56688;50.234;19.292;2023-05-19T14:44:46;9.50;;;8.50;;
69126;SDS011;56688;50.234;19.292;2023-05-19T14:47:13;10.40;;;8.30;;
69126;SDS011;56688;50.234;19.292;2023-05-19T14:49:40;11.60;;;8.60;;
69126;SDS011;56688;50.234;19.292;2023-05-19T14:52:07;10.00;;;7.30;;
69126;SDS011;56688;50.234;19.292;2023-05-19T14:54:33;11.20;;;8.20;;
69126;SDS011;56688;50.234;19.292;2023-05-19T14:57:00;9.40;;;7.80;;
69126;SDS011;56688;50.234;19.292;2023-05-19T14:59:28;8.00;;;7.10;;
69126;SDS011;56688;50.234;19.292;2023-05-19T15:01:55;9.80;;;7.80;;
69126;SDS011;56688;50.234;19.292;2023-05-19T15:04:22;11.40;;;8.80;;
69126;SDS011;56688;50.234;19.292;2023-05-19T15:06:49;12.50;;;9.40;;
69126;SDS011;56688;50.234;19.292;2023-05-19T15:09:35;11.10;;;8.90;;
69126;SDS011;56688;50.234;19.292;2023-05-19T15:12:01;10.30;;;8.70;;
69126;SDS011;56688;50.234;19.292;2023-05-19T15:14:28;10.70;;;7.50;;
69126;SDS011;56688;50.234;19.292;2023-05-19T15:16:56;10.80;;;8.40;;
69126;SDS011;56688;50.234;19.292;2023-05-19T15:19:24;13.80;;;11.30;;
69126;SDS011;56688;50.234;19.292;2023-05-19T15:21:52;13.40;;;9.90;;